Saint Louis, Missouri
Traffic Map
Current Weather Conditions
Saint Louis, Missouri
Clear
Clear
11°
Feels Like: 11°
Wind Chill: 11° Ceiling: Unl
Heat Index: 11° Visibility: 10mi
Dew Point: Wind: 3mph
Humidity: 50% Direction: 220° (SW)
Pressure: 29.85in Gusts: 0mph
Raw Report DataKCPS 210253Z 22003KT 10SM CLR 11/01 A2985 RMK AO2 SLP108 T01060006 53020
Traffic Incident Summary
Active as of:
Severity:
Category:
InformationThere was an issue retrieving the traffic information for this location. Please try a different location or try again shortly.
Advertisements
Track Severe Weather on mobile